Time;durP1;ratioP1;P1;durP2;ratioP2;P2;SDS_P1;SDS_P2;PMS_P1;PMS_P2;Temp;Humidity;BMP_temperature;BMP_pressure;BME280_temperature;BME280_humidity;BME280_pressure;Samples;Min_cycle;Max_cycle;Signal;HPM_P1;HPM_P2
2023/04/05 00:02:28;;;;;;;8.07;4.17;;;;;;;;;;5054332;28;20251;-51
2023/04/05 00:04:57;;;;;;;8.87;5.33;;;;;;;;;;5055977;28;21908;-52
2023/04/05 00:07:25;;;;;;;6.17;4.53;;;;;;;;;;5044151;28;20238;-51
2023/04/05 00:09:52;;;;;;;7.07;4.93;;;;;;;;;;5050006;28;20232;-54
2023/04/05 00:12:18;;;;;;;5.93;4.33;;;;;;;;;;5051644;28;20238;-51
2023/04/05 00:14:45;;;;;;;7.07;4.13;;;;;;;;;;5050768;28;20245;-51
2023/04/05 00:17:12;;;;;;;4.60;3.10;;;;;;;;;;5043422;28;20245;-51
2023/04/05 00:19:38;;;;;;;6.03;3.87;;;;;;;;;;5041209;28;20322;-50
2023/04/05 00:22:09;;;;;;;5.33;3.17;;;;;;;;;;5064675;28;20242;-51
2023/04/05 00:24:40;;;;;;;4.73;3.33;;;;;;;;;;5055183;28;20240;-51
2023/04/05 00:27:07;;;;;;;6.10;3.07;;;;;;;;;;5053255;28;20237;-51
2023/04/05 00:29:33;;;;;;;6.13;2.73;;;;;;;;;;5051786;28;20262;-52
2023/04/05 00:32:00;;;;;;;3.20;2.57;;;;;;;;;;5032381;28;20231;-52
2023/04/05 00:34:28;;;;;;;4.27;3.23;;;;;;;;;;5051181;28;20245;-52
2023/04/05 00:36:54;;;;;;;3.93;2.93;;;;;;;;;;5057711;28;20273;-51
2023/04/05 00:39:22;;;;;;;4.57;3.10;;;;;;;;;;5049772;28;20239;-50
2023/04/05 00:41:49;;;;;;;6.33;3.00;;;;;;;;;;5046563;28;20253;-51
2023/04/05 00:44:16;;;;;;;4.97;3.43;;;;;;;;;;5045313;28;20231;-51
2023/04/05 00:46:43;;;;;;;5.10;3.37;;;;;;;;;;5038423;28;20702;-51
2023/04/05 00:49:09;;;;;;;3.47;3.17;;;;;;;;;;5044327;28;20235;-51
2023/04/05 00:51:36;;;;;;;4.30;3.37;;;;;;;;;;5052182;28;20880;-51
2023/04/05 00:54:03;;;;;;;4.20;2.87;;;;;;;;;;5058303;28;20930;-51
2023/04/05 00:56:32;;;;;;;4.37;3.13;;;;;;;;;;5064573;28;21010;-54
2023/04/05 00:58:58;;;;;;;4.53;3.43;;;;;;;;;;5060217;28;20250;-51
2023/04/05 01:01:26;;;;;;;3.67;3.00;;;;;;;;;;5048184;28;20241;-51
2023/04/05 01:03:54;;;;;;;4.53;3.30;;;;;;;;;;5052382;28;20230;-51
2023/04/05 01:06:32;;;;;;;4.30;2.50;;;;;;;;;;5062043;28;20253;-51
2023/04/05 01:09:01;;;;;;;4.43;2.80;;;;;;;;;;5053686;28;20244;-52
2023/04/05 01:11:28;;;;;;;3.83;2.83;;;;;;;;;;5062547;28;20393;-51
2023/04/05 01:13:59;;;;;;;5.13;3.27;;;;;;;;;;5059858;28;20231;-51
2023/04/05 01:16:26;;;;;;;4.10;3.23;;;;;;;;;;5051764;28;20238;-51
2023/04/05 01:18:55;;;;;;;5.67;3.43;;;;;;;;;;5054773;28;20237;-51
2023/04/05 01:21:32;;;;;;;3.83;3.40;;;;;;;;;;5050981;28;20246;-52
2023/04/05 01:24:08;;;;;;;6.23;3.37;;;;;;;;;;5060950;28;20245;-52
2023/04/05 01:26:46;;;;;;;8.23;4.00;;;;;;;;;;5057165;28;20911;-52
2023/04/05 01:29:27;;;;;;;5.20;3.33;;;;;;;;;;5047466;28;20305;-51
2023/04/05 01:32:00;;;;;;;5.70;2.87;;;;;;;;;;5048235;28;20239;-50
2023/04/05 01:34:32;;;;;;;5.47;3.43;;;;;;;;;;5052216;28;20242;-51
2023/04/05 01:37:02;;;;;;;5.87;4.30;;;;;;;;;;5042497;28;20246;-51
2023/04/05 01:39:29;;;;;;;7.47;3.77;;;;;;;;;;5052165;28;20234;-52
2023/04/05 01:41:58;;;;;;;6.00;3.70;;;;;;;;;;5051499;28;20240;-51
2023/04/05 01:44:25;;;;;;;8.63;5.10;;;;;;;;;;5046728;28;20307;-51
2023/04/05 01:46:51;;;;;;;6.37;4.23;;;;;;;;;;5037333;28;20292;-51
2023/04/05 01:49:20;;;;;;;6.93;4.00;;;;;;;;;;5049968;28;20317;-51
2023/04/05 01:51:46;;;;;;;7.37;4.70;;;;;;;;;;5055782;28;20325;-51
2023/04/05 01:54:13;;;;;;;8.57;4.20;;;;;;;;;;5048348;28;20317;-52
2023/04/05 01:56:40;;;;;;;5.70;4.20;;;;;;;;;;5049144;28;20247;-52
2023/04/05 01:59:06;;;;;;;6.93;4.10;;;;;;;;;;5059337;28;20640;-51
2023/04/05 02:01:33;;;;;;;7.53;4.43;;;;;;;;;;5046363;28;20591;-51
2023/04/05 02:03:59;;;;;;;10.83;4.43;;;;;;;;;;5043833;28;20246;-51
2023/04/05 02:06:28;;;;;;;5.37;4.30;;;;;;;;;;5057678;28;20242;-52
2023/04/05 02:08:54;;;;;;;7.33;5.10;;;;;;;;;;5057368;28;20242;-51
2023/04/05 02:11:21;;;;;;;6.00;4.33;;;;;;;;;;5051225;28;20239;-53
2023/04/05 02:13:48;;;;;;;4.90;4.20;;;;;;;;;;5053432;28;20325;-51
2023/04/05 02:16:15;;;;;;;8.10;4.97;;;;;;;;;;5053603;28;20238;-51
2023/04/05 02:18:42;;;;;;;9.50;4.73;;;;;;;;;;5054456;28;20325;-51
2023/04/05 02:21:09;;;;;;;5.83;4.00;;;;;;;;;;5044809;28;20646;-50
2023/04/05 02:23:37;;;;;;;7.27;4.23;;;;;;;;;;5053967;28;20230;-50
2023/04/05 02:26:04;;;;;;;9.00;4.80;;;;;;;;;;5061349;28;20726;-51
2023/04/05 02:28:30;;;;;;;9.97;5.37;;;;;;;;;;5042938;28;21737;-51
2023/04/05 02:30:57;;;;;;;7.30;4.90;;;;;;;;;;5049902;28;20313;-51
2023/04/05 02:33:23;;;;;;;6.23;4.83;;;;;;;;;;5044698;28;20235;-51
2023/04/05 02:35:51;;;;;;;8.03;4.63;;;;;;;;;;5035369;28;20391;-51
2023/04/05 02:38:18;;;;;;;7.20;4.43;;;;;;;;;;5054981;28;20273;-51
2023/04/05 02:40:48;;;;;;;7.80;4.93;;;;;;;;;;5056700;28;20263;-51
2023/04/05 02:43:15;;;;;;;8.27;5.00;;;;;;;;;;5049451;28;20239;-51
2023/04/05 02:45:42;;;;;;;6.53;4.60;;;;;;;;;;5051459;28;20761;-51
2023/04/05 02:48:08;;;;;;;11.47;5.17;;;;;;;;;;5056271;28;20250;-51
2023/04/05 02:50:35;;;;;;;5.00;4.53;;;;;;;;;;5051688;28;20224;-51
2023/04/05 02:53:01;;;;;;;6.97;4.63;;;;;;;;;;5049365;28;20230;-51
2023/04/05 02:55:29;;;;;;;7.30;4.40;;;;;;;;;;5061613;28;20241;-51
2023/04/05 02:58:00;;;;;;;7.53;4.53;;;;;;;;;;5047444;28;20608;-51
2023/04/05 03:00:27;;;;;;;6.27;4.23;;;;;;;;;;5037627;28;20234;-54
2023/04/05 03:02:54;;;;;;;6.40;3.87;;;;;;;;;;5053028;28;20322;-49
2023/04/05 03:05:21;;;;;;;8.60;4.43;;;;;;;;;;5059463;28;20228;-53
2023/04/05 03:07:49;;;;;;;5.57;4.03;;;;;;;;;;5057823;28;20234;-52
2023/04/05 03:10:17;;;;;;;6.17;4.10;;;;;;;;;;5063604;28;20272;-52
2023/04/05 03:12:45;;;;;;;7.23;4.43;;;;;;;;;;5053837;28;20232;-52
2023/04/05 03:15:12;;;;;;;8.30;5.13;;;;;;;;;;5047029;28;20239;-52
2023/04/05 03:17:43;;;;;;;5.60;4.00;;;;;;;;;;5037777;28;20728;-52
2023/04/05 03:20:10;;;;;;;9.17;5.00;;;;;;;;;;5052057;28;20245;-51
2023/04/05 03:22:37;;;;;;;7.77;3.80;;;;;;;;;;5060153;28;20339;-52
2023/04/05 03:25:04;;;;;;;4.37;3.60;;;;;;;;;;5048402;28;20325;-52
2023/04/05 03:27:31;;;;;;;5.30;4.03;;;;;;;;;;5056285;28;20727;-52
2023/04/05 03:29:57;;;;;;;6.70;4.77;;;;;;;;;;5049503;28;20234;-51
2023/04/05 03:32:26;;;;;;;7.53;3.70;;;;;;;;;;5036986;28;20235;-50
2023/04/05 03:34:52;;;;;;;6.60;4.27;;;;;;;;;;5061405;28;20251;-52
2023/04/05 03:37:19;;;;;;;7.47;3.97;;;;;;;;;;5056233;28;20239;-51
2023/04/05 03:39:47;;;;;;;6.00;4.13;;;;;;;;;;5056490;28;20231;-52
2023/04/05 03:42:14;;;;;;;5.47;3.60;;;;;;;;;;5055068;28;20252;-51
2023/04/05 03:44:41;;;;;;;6.23;3.43;;;;;;;;;;5046836;28;20634;-52
2023/04/05 03:47:08;;;;;;;4.97;3.43;;;;;;;;;;5060861;28;20337;-51
2023/04/05 03:49:36;;;;;;;4.90;3.47;;;;;;;;;;5064677;28;20264;-52
2023/04/05 03:52:02;;;;;;;5.07;3.63;;;;;;;;;;5054566;28;20239;-51
2023/04/05 03:54:29;;;;;;;8.67;4.93;;;;;;;;;;5051888;28;20307;-51
2023/04/05 03:56:56;;;;;;;5.47;3.53;;;;;;;;;;5042828;28;20246;-52
2023/04/05 03:59:22;;;;;;;7.10;3.77;;;;;;;;;;5048202;28;20234;-52
2023/04/05 04:01:49;;;;;;;4.10;3.40;;;;;;;;;;5057951;28;20608;-52
2023/04/05 04:04:16;;;;;;;5.13;3.17;;;;;;;;;;5061478;28;20288;-52
2023/04/05 04:06:44;;;;;;;4.23;2.90;;;;;;;;;;5062630;28;20238;-52
2023/04/05 04:09:10;;;;;;;4.63;3.53;;;;;;;;;;5046526;28;20296;-52
2023/04/05 04:11:37;;;;;;;3.23;3.03;;;;;;;;;;5036428;28;20262;-52
2023/04/05 04:14:04;;;;;;;3.90;3.07;;;;;;;;;;5045687;28;20234;-52
2023/04/05 04:16:31;;;;;;;6.87;3.07;;;;;;;;;;5054087;28;20248;-51
2023/04/05 04:18:57;;;;;;;4.37;2.93;;;;;;;;;;5063981;28;20266;-52
2023/04/05 04:21:24;;;;;;;6.27;3.63;;;;;;;;;;5064118;28;20317;-52
2023/04/05 04:23:52;;;;;;;4.30;3.13;;;;;;;;;;5055129;28;20235;-51
2023/04/05 04:26:25;;;;;;;9.07;3.50;;;;;;;;;;5046239;28;20296;-51
2023/04/05 04:28:53;;;;;;;10.67;4.30;;;;;;;;;;5047471;28;20226;-52
2023/04/05 04:31:21;;;;;;;5.70;3.53;;;;;;;;;;5055951;28;20325;-52
2023/04/05 04:33:49;;;;;;;4.97;3.13;;;;;;;;;;5061532;28;20239;-51
2023/04/05 04:36:17;;;;;;;5.60;3.50;;;;;;;;;;5058825;28;20235;-53
2023/04/05 04:38:43;;;;;;;7.03;3.97;;;;;;;;;;5052690;28;20241;-51
2023/04/05 04:41:11;;;;;;;7.67;4.37;;;;;;;;;;5048367;28;20297;-51
2023/04/05 04:43:42;;;;;;;6.27;4.20;;;;;;;;;;5045447;28;20325;-52
2023/04/05 04:46:13;;;;;;;8.90;5.03;;;;;;;;;;5050949;28;20248;-52
2023/04/05 04:48:41;;;;;;;9.60;4.90;;;;;;;;;;5049202;28;20235;-51
2023/04/05 04:51:08;;;;;;;8.07;4.93;;;;;;;;;;5060448;28;20230;-52
2023/04/05 04:53:34;;;;;;;10.67;4.40;;;;;;;;;;5052874;28;20845;-52
2023/04/05 04:56:01;;;;;;;5.67;4.00;;;;;;;;;;5051163;28;20234;-52
2023/04/05 04:58:29;;;;;;;6.90;4.30;;;;;;;;;;5058656;28;20762;-51
2023/04/05 05:00:58;;;;;;;8.03;3.93;;;;;;;;;;5050391;28;20321;-52
2023/04/05 05:03:25;;;;;;;6.43;2.90;;;;;;;;;;5044803;28;20250;-52
2023/04/05 05:05:52;;;;;;;3.93;3.47;;;;;;;;;;5045528;28;20269;-55
2023/04/05 05:08:19;;;;;;;5.47;3.20;;;;;;;;;;5054862;28;20770;-52
2023/04/05 05:10:45;;;;;;;3.03;2.73;;;;;;;;;;5051242;28;20226;-52
2023/04/05 05:13:12;;;;;;;3.13;2.77;;;;;;;;;;5053399;28;20317;-53
2023/04/05 05:15:41;;;;;;;5.40;2.93;;;;;;;;;;5054662;28;20585;-52
2023/04/05 05:18:08;;;;;;;6.23;3.03;;;;;;;;;;5056358;28;20237;-52
2023/04/05 05:20:34;;;;;;;3.90;2.50;;;;;;;;;;5059529;28;20320;-51
2023/04/05 05:23:02;;;;;;;4.47;2.30;;;;;;;;;;5041631;28;20315;-52
2023/04/05 05:25:29;;;;;;;6.57;2.40;;;;;;;;;;5048526;28;20326;-51
2023/04/05 05:27:55;;;;;;;2.90;2.60;;;;;;;;;;5058818;28;20648;-52
2023/04/05 05:30:22;;;;;;;4.33;3.00;;;;;;;;;;5062859;28;20370;-53
2023/04/05 05:32:51;;;;;;;3.37;2.47;;;;;;;;;;5060235;28;20237;-52
2023/04/05 05:35:18;;;;;;;8.77;3.43;;;;;;;;;;5046984;28;20304;-52
2023/04/05 05:37:44;;;;;;;4.80;2.90;;;;;;;;;;5043038;28;20248;-51
2023/04/05 05:40:12;;;;;;;5.47;2.83;;;;;;;;;;5042827;28;20241;-51
2023/04/05 05:42:38;;;;;;;2.33;2.10;;;;;;;;;;5056395;28;20616;-52
2023/04/05 05:45:06;;;;;;;4.50;2.80;;;;;;;;;;5049680;28;20241;-52
2023/04/05 05:47:32;;;;;;;5.10;2.00;;;;;;;;;;5059809;28;20243;-52
2023/04/05 05:50:00;;;;;;;4.03;2.53;;;;;;;;;;5060996;28;20569;-51
2023/04/05 05:52:27;;;;;;;3.57;2.40;;;;;;;;;;5043343;28;20680;-52
2023/04/05 05:54:54;;;;;;;11.07;3.30;;;;;;;;;;5043947;28;20317;-52
2023/04/05 05:57:20;;;;;;;2.37;2.17;;;;;;;;;;5059742;28;20664;-52
2023/04/05 05:59:47;;;;;;;6.63;2.43;;;;;;;;;;5061366;28;20234;-52
2023/04/05 06:02:17;;;;;;;3.13;2.40;;;;;;;;;;5048225;28;20251;-52
2023/04/05 06:04:44;;;;;;;2.23;2.03;;;;;;;;;;5046646;28;20308;-52
2023/04/05 06:07:12;;;;;;;5.60;2.67;;;;;;;;;;5033871;28;20309;-50
2023/04/05 06:09:39;;;;;;;4.27;3.10;;;;;;;;;;5036885;28;20304;-52
2023/04/05 06:12:06;;;;;;;5.90;2.50;;;;;;;;;;5055060;28;20227;-52
2023/04/05 06:14:32;;;;;;;4.10;3.20;;;;;;;;;;5054561;28;20250;-52
2023/04/05 06:16:59;;;;;;;6.97;2.47;;;;;;;;;;5059412;28;20238;-50
2023/04/05 06:19:29;;;;;;;4.23;2.40;;;;;;;;;;5050960;28;20257;-52
2023/04/05 06:21:55;;;;;;;4.23;2.93;;;;;;;;;;5049452;28;20666;-52
2023/04/05 06:24:23;;;;;;;6.43;3.83;;;;;;;;;;5043045;28;20242;-52
2023/04/05 06:26:50;;;;;;;7.13;3.47;;;;;;;;;;5049994;28;20236;-53
2023/04/05 06:29:17;;;;;;;3.90;2.30;;;;;;;;;;5058243;28;20262;-51
2023/04/05 06:31:45;;;;;;;5.23;3.57;;;;;;;;;;5056358;28;20229;-51
2023/04/05 06:34:11;;;;;;;3.30;2.50;;;;;;;;;;5060008;28;20296;-51
2023/04/05 06:36:38;;;;;;;2.97;2.50;;;;;;;;;;5051172;28;20728;-51
2023/04/05 06:39:04;;;;;;;3.37;2.60;;;;;;;;;;5058308;28;20247;-52
2023/04/05 06:41:32;;;;;;;4.17;2.33;;;;;;;;;;5058838;28;20321;-52
2023/04/05 06:43:59;;;;;;;14.33;4.57;;;;;;;;;;5048696;28;20309;-51
2023/04/05 06:46:26;;;;;;;6.47;3.07;;;;;;;;;;5056237;28;20322;-51
2023/04/05 06:48:53;;;;;;;5.47;2.83;;;;;;;;;;5052986;28;20328;-51
2023/04/05 06:51:20;;;;;;;4.80;2.90;;;;;;;;;;5045305;28;20238;-51
2023/04/05 06:53:46;;;;;;;2.90;2.57;;;;;;;;;;5063257;28;20317;-51
2023/04/05 06:56:13;;;;;;;3.50;2.50;;;;;;;;;;5053377;28;20262;-50
2023/04/05 06:58:41;;;;;;;4.20;3.20;;;;;;;;;;5048023;28;20234;-50
2023/04/05 07:01:08;;;;;;;3.40;3.10;;;;;;;;;;5042630;28;20242;-53
2023/04/05 07:03:35;;;;;;;4.07;3.00;;;;;;;;;;5047786;28;20261;-51
2023/04/05 07:06:01;;;;;;;6.70;3.20;;;;;;;;;;5046252;28;20246;-52
2023/04/05 07:08:29;;;;;;;4.50;2.90;;;;;;;;;;5049476;28;20235;-51
2023/04/05 07:10:55;;;;;;;3.60;2.83;;;;;;;;;;5051038;28;20268;-51
2023/04/05 07:13:23;;;;;;;5.17;2.67;;;;;;;;;;5043569;28;20230;-52
2023/04/05 07:15:51;;;;;;;7.07;4.03;;;;;;;;;;5047002;28;20330;-51
2023/04/05 07:18:18;;;;;;;5.20;2.93;;;;;;;;;;5045361;28;20234;-50
2023/04/05 07:20:46;;;;;;;3.07;2.63;;;;;;;;;;5049368;28;20940;-51
2023/04/05 07:23:13;;;;;;;4.10;2.63;;;;;;;;;;5045621;28;20245;-51
2023/04/05 07:25:40;;;;;;;6.23;3.03;;;;;;;;;;5047893;28;20251;-51
2023/04/05 07:28:07;;;;;;;4.23;2.87;;;;;;;;;;5041953;28;20239;-51
2023/04/05 07:30:35;;;;;;;5.43;2.97;;;;;;;;;;5036503;28;20245;-51
2023/04/05 07:33:03;;;;;;;5.73;3.70;;;;;;;;;;5020812;28;20262;-51
2023/04/05 07:35:30;;;;;;;3.60;2.83;;;;;;;;;;5040268;28;20261;-51
2023/04/05 07:37:56;;;;;;;3.83;3.10;;;;;;;;;;5059674;28;20253;-51
2023/04/05 07:40:23;;;;;;;4.13;2.87;;;;;;;;;;5048216;28;20315;-51
2023/04/05 07:42:50;;;;;;;5.07;3.70;;;;;;;;;;5053925;28;20304;-50
2023/04/05 07:45:16;;;;;;;4.80;2.80;;;;;;;;;;5054292;28;20612;-51
2023/04/05 07:47:43;;;;;;;6.27;3.53;;;;;;;;;;5050095;28;20237;-50
2023/04/05 07:50:13;;;;;;;11.03;3.63;;;;;;;;;;5048120;28;20768;-51
2023/04/05 07:52:40;;;;;;;5.17;3.60;;;;;;;;;;5051120;28;20270;-51
2023/04/05 07:55:07;;;;;;;6.00;4.20;;;;;;;;;;5049464;28;20277;-51
2023/04/05 07:57:33;;;;;;;5.73;4.00;;;;;;;;;;5048263;28;20331;-52
2023/04/05 08:00:00;;;;;;;6.53;3.80;;;;;;;;;;5050064;28;20235;-51
2023/04/05 08:02:26;;;;;;;7.80;4.97;;;;;;;;;;5053381;28;20906;-52
2023/04/05 08:04:53;;;;;;;7.13;4.33;;;;;;;;;;5060246;28;20244;-51
2023/04/05 08:07:21;;;;;;;6.10;4.10;;;;;;;;;;5048136;28;20317;-51
2023/04/05 08:09:47;;;;;;;7.57;5.13;;;;;;;;;;5050145;28;20219;-51
2023/04/05 08:12:14;;;;;;;4.17;3.73;;;;;;;;;;5046033;28;20314;-51
2023/04/05 08:14:41;;;;;;;10.57;4.50;;;;;;;;;;5050988;28;20256;-51
2023/04/05 08:17:07;;;;;;;7.63;5.03;;;;;;;;;;5065898;28;20319;-51
2023/04/05 08:19:34;;;;;;;8.00;4.73;;;;;;;;;;5059228;28;20242;-51
2023/04/05 08:22:00;;;;;;;7.93;4.50;;;;;;;;;;5055142;28;20245;-51
2023/04/05 08:24:28;;;;;;;7.60;3.67;;;;;;;;;;5052761;28;20235;-51
2023/04/05 08:26:55;;;;;;;7.57;4.53;;;;;;;;;;5047183;28;20780;-52
2023/04/05 08:29:22;;;;;;;5.53;4.30;;;;;;;;;;5066658;28;20234;-50
2023/04/05 08:31:48;;;;;;;6.27;3.77;;;;;;;;;;5047215;28;20230;-51
2023/04/05 08:34:15;;;;;;;6.90;3.87;;;;;;;;;;5051057;28;20231;-50
2023/04/05 08:36:41;;;;;;;6.53;3.93;;;;;;;;;;5059704;28;20776;-51
2023/04/05 08:39:08;;;;;;;6.20;3.77;;;;;;;;;;5045056;28;20718;-52
2023/04/05 08:41:36;;;;;;;7.37;3.80;;;;;;;;;;5046067;28;20232;-52
2023/04/05 08:44:04;;;;;;;5.37;4.13;;;;;;;;;;5041958;28;20247;-52
2023/04/05 08:46:34;;;;;;;5.90;3.83;;;;;;;;;;5052920;28;20223;-52
2023/04/05 08:49:07;;;;;;;6.97;4.67;;;;;;;;;;5058871;28;20301;-51
2023/04/05 08:51:33;;;;;;;6.27;4.00;;;;;;;;;;5043838;28;20232;-52
2023/04/05 08:54:00;;;;;;;5.70;4.00;;;;;;;;;;5033064;28;20290;-50
2023/04/05 08:56:27;;;;;;;8.17;4.20;;;;;;;;;;5053282;28;20614;-51
2023/04/05 08:58:58;;;;;;;6.13;3.70;;;;;;;;;;5029689;28;20270;-51
2023/04/05 09:01:25;;;;;;;8.07;4.53;;;;;;;;;;5039497;28;20485;-50
2023/04/05 09:03:53;;;;;;;5.40;4.17;;;;;;;;;;5046322;28;20263;-53
2023/04/05 09:06:20;;;;;;;5.20;4.07;;;;;;;;;;5047823;28;20244;-51
2023/04/05 09:08:47;;;;;;;7.30;4.60;;;;;;;;;;5045358;28;20240;-52
2023/04/05 09:11:14;;;;;;;6.07;4.27;;;;;;;;;;5042050;28;20299;-52
2023/04/05 09:13:40;;;;;;;8.47;4.93;;;;;;;;;;5047223;28;20256;-51
2023/04/05 09:16:09;;;;;;;7.67;4.40;;;;;;;;;;5049415;28;20298;-50
2023/04/05 09:18:35;;;;;;;5.13;3.43;;;;;;;;;;5047878;28;20235;-51
2023/04/05 09:21:02;;;;;;;4.67;3.63;;;;;;;;;;5040303;28;20223;-52
2023/04/05 09:23:29;;;;;;;6.50;3.90;;;;;;;;;;5044209;28;20228;-58
2023/04/05 09:25:57;;;;;;;3.73;3.33;;;;;;;;;;5041817;28;20290;-52
2023/04/05 09:28:23;;;;;;;6.77;3.87;;;;;;;;;;5048073;28;20726;-52
2023/04/05 09:30:50;;;;;;;6.10;4.10;;;;;;;;;;5036869;28;20228;-51
2023/04/05 09:33:21;;;;;;;5.80;3.93;;;;;;;;;;5042745;28;20231;-52
2023/04/05 09:35:49;;;;;;;4.50;3.63;;;;;;;;;;5043374;28;20227;-51
2023/04/05 09:38:16;;;;;;;4.80;4.07;;;;;;;;;;5046338;28;20236;-52
2023/04/05 09:40:46;;;;;;;5.53;3.60;;;;;;;;;;5043580;28;20243;-52
2023/04/05 09:43:13;;;;;;;5.70;4.90;;;;;;;;;;5048595;28;20769;-51
2023/04/05 09:45:40;;;;;;;5.90;3.73;;;;;;;;;;5040987;28;20308;-52
2023/04/05 09:48:07;;;;;;;5.27;4.07;;;;;;;;;;5040528;28;20268;-52
2023/04/05 09:50:35;;;;;;;3.90;3.37;;;;;;;;;;5050557;28;20300;-51
2023/04/05 09:53:06;;;;;;;3.57;3.17;;;;;;;;;;5042891;28;20227;-56
2023/04/05 09:55:33;;;;;;;4.07;3.77;;;;;;;;;;5047072;28;20700;-52
2023/04/05 09:58:01;;;;;;;5.50;3.47;;;;;;;;;;5049815;28;20729;-52
2023/04/05 10:00:30;;;;;;;4.30;3.90;;;;;;;;;;5032692;28;20302;-52
2023/04/05 10:02:57;;;;;;;5.67;3.63;;;;;;;;;;5042666;28;20285;-52
2023/04/05 10:05:24;;;;;;;6.27;3.77;;;;;;;;;;5045091;28;20310;-52
2023/04/05 10:07:52;;;;;;;5.43;3.73;;;;;;;;;;5035595;28;20244;-52
2023/04/05 10:10:19;;;;;;;4.97;3.40;;;;;;;;;;5039921;28;20235;-52
2023/04/05 10:12:47;;;;;;;3.20;2.90;;;;;;;;;;5054539;28;20238;-51
2023/04/05 10:15:14;;;;;;;5.57;3.60;;;;;;;;;;5040891;28;20243;-52
2023/04/05 10:17:48;;;;;;;5.47;3.73;;;;;;;;;;5053329;28;20250;-52
2023/04/05 10:20:15;;;;;;;6.83;3.53;;;;;;;;;;5043761;28;20241;-51
2023/04/05 10:22:44;;;;;;;4.63;3.30;;;;;;;;;;5047149;28;20238;-52
2023/04/05 10:25:18;;;;;;;4.07;3.63;;;;;;;;;;5048539;28;20246;-52
2023/04/05 10:27:47;;;;;;;4.90;3.90;;;;;;;;;;5052136;28;20266;-52
2023/04/05 10:30:15;;;;;;;4.80;3.93;;;;;;;;;;5049415;28;20789;-51
2023/04/05 10:32:45;;;;;;;4.57;3.50;;;;;;;;;;5049264;28;21876;-51
2023/04/05 10:35:16;;;;;;;6.37;3.43;;;;;;;;;;5038809;28;20747;-51
2023/04/05 10:37:49;;;;;;;3.43;3.13;;;;;;;;;;5045542;28;20286;-51
2023/04/05 10:40:20;;;;;;;5.07;3.33;;;;;;;;;;5039531;28;20926;-51
2023/04/05 10:42:47;;;;;;;4.53;3.20;;;;;;;;;;5050848;28;20228;-53
2023/04/05 10:45:18;;;;;;;4.07;3.33;;;;;;;;;;5044972;28;20309;-51
2023/04/05 10:47:47;;;;;;;5.50;3.97;;;;;;;;;;5045460;28;20453;-51
2023/04/05 10:50:17;;;;;;;4.13;3.70;;;;;;;;;;5046410;28;20963;-51
2023/04/05 10:52:44;;;;;;;4.93;3.73;;;;;;;;;;5045677;28;20235;-51
2023/04/05 10:55:11;;;;;;;3.43;3.13;;;;;;;;;;5052280;28;20227;-52
2023/04/05 10:57:39;;;;;;;7.93;3.63;;;;;;;;;;5049299;28;20327;-53
2023/04/05 11:00:07;;;;;;;3.80;3.50;;;;;;;;;;5053164;28;20239;-52
2023/04/05 11:02:34;;;;;;;4.10;3.23;;;;;;;;;;5053260;28;20235;-53
2023/04/05 11:05:03;;;;;;;3.80;3.27;;;;;;;;;;5049195;28;20326;-52
2023/04/05 11:07:42;;;;;;;4.47;3.27;;;;;;;;;;5043090;28;20235;-51
2023/04/05 11:10:15;;;;;;;4.53;3.17;;;;;;;;;;5051536;28;20794;-51
2023/04/05 11:13:01;;;;;;;4.53;3.37;;;;;;;;;;5055864;28;20342;-52
2023/04/05 11:15:33;;;;;;;7.67;3.50;;;;;;;;;;5040027;28;20378;-52
2023/04/05 11:18:07;;;;;;;5.67;3.70;;;;;;;;;;5046279;28;20239;-51
2023/04/05 11:20:51;;;;;;;5.80;3.40;;;;;;;;;;5044456;28;20262;-50
2023/04/05 11:23:19;;;;;;;5.17;3.10;;;;;;;;;;5046614;28;20238;-53
2023/04/05 11:25:50;;;;;;;3.83;3.50;;;;;;;;;;5050166;28;20247;-50
2023/04/05 11:28:24;;;;;;;5.43;3.90;;;;;;;;;;5051468;28;22033;-51
2023/04/05 11:30:55;;;;;;;3.90;3.30;;;;;;;;;;5048294;28;20225;-53
2023/04/05 11:33:52;;;;;;;4.33;2.97;;;;;;;;;;5050074;28;20236;-51
2023/04/05 11:36:30;;;;;;;3.47;2.80;;;;;;;;;;5027803;28;20228;-51
2023/04/05 11:39:11;;;;;;;4.40;2.73;;;;;;;;;;5025894;28;20241;-51
2023/04/05 11:41:38;;;;;;;4.60;3.13;;;;;;;;;;5027516;28;20636;-51
2023/04/05 11:44:05;;;;;;;3.20;2.60;;;;;;;;;;5035302;28;20240;-50
2023/04/05 11:46:33;;;;;;;4.63;3.17;;;;;;;;;;5028087;28;20275;-52
2023/04/05 11:48:59;;;;;;;3.87;3.03;;;;;;;;;;5035868;28;20235;-50
2023/04/05 11:51:27;;;;;;;4.73;2.83;;;;;;;;;;5033459;28;20315;-51
2023/04/05 11:53:54;;;;;;;5.07;3.20;;;;;;;;;;5028223;28;20324;-52
2023/04/05 11:56:21;;;;;;;5.17;3.27;;;;;;;;;;5039351;28;20252;-51
2023/04/05 11:58:47;;;;;;;5.37;3.27;;;;;;;;;;5052031;28;20239;-52
2023/04/05 12:01:14;;;;;;;4.37;2.97;;;;;;;;;;5046905;28;20352;-52
2023/04/05 12:03:42;;;;;;;7.27;3.43;;;;;;;;;;5046084;28;20259;-52
2023/04/05 12:06:09;;;;;;;5.03;3.40;;;;;;;;;;5051131;28;20288;-51
2023/04/05 12:08:39;;;;;;;3.47;2.43;;;;;;;;;;5047345;28;20228;-52
2023/04/05 12:11:07;;;;;;;3.67;2.70;;;;;;;;;;5050572;28;20219;-52
2023/04/05 12:13:34;;;;;;;3.67;2.77;;;;;;;;;;5053391;28;20490;-51
2023/04/05 12:16:01;;;;;;;4.07;2.77;;;;;;;;;;5048797;28;20236;-51
2023/04/05 12:18:28;;;;;;;3.50;2.53;;;;;;;;;;5048690;28;20795;-51
2023/04/05 12:20:56;;;;;;;3.97;3.00;;;;;;;;;;5049146;28;20231;-52
2023/04/05 12:23:23;;;;;;;5.33;2.83;;;;;;;;;;5046132;28;20232;-52
2023/04/05 12:25:50;;;;;;;3.90;2.67;;;;;;;;;;5048887;28;20258;-51
2023/04/05 12:28:16;;;;;;;3.10;2.60;;;;;;;;;;5046973;28;20297;-51
2023/04/05 12:30:50;;;;;;;5.17;2.77;;;;;;;;;;5045677;28;20223;-51
2023/04/05 12:33:26;;;;;;;2.57;2.03;;;;;;;;;;5051462;28;20231;-52
2023/04/05 12:35:52;;;;;;;5.93;2.23;;;;;;;;;;5052637;28;20253;-50
2023/04/05 12:38:20;;;;;;;3.13;2.70;;;;;;;;;;5041864;28;20291;-52
2023/04/05 12:40:47;;;;;;;4.47;2.27;;;;;;;;;;5048369;28;20234;-51
2023/04/05 12:43:18;;;;;;;3.03;2.33;;;;;;;;;;5048715;28;20231;-50
2023/04/05 12:45:45;;;;;;;5.80;3.20;;;;;;;;;;5045193;28;20239;-51
2023/04/05 12:48:13;;;;;;;3.63;2.97;;;;;;;;;;5042849;28;20237;-51
2023/04/05 12:50:42;;;;;;;4.80;2.63;;;;;;;;;;5041855;28;20303;-51
2023/04/05 12:53:09;;;;;;;5.67;2.77;;;;;;;;;;5053316;28;20250;-52
2023/04/05 12:55:44;;;;;;;5.77;3.20;;;;;;;;;;5040291;28;20262;-51
2023/04/05 12:58:12;;;;;;;3.80;2.63;;;;;;;;;;5056171;28;20257;-50
2023/04/05 13:00:38;;;;;;;3.23;2.77;;;;;;;;;;5053161;28;20228;-50
2023/04/05 13:03:05;;;;;;;3.10;2.80;;;;;;;;;;5043123;28;20238;-51
2023/04/05 13:05:31;;;;;;;3.97;2.47;;;;;;;;;;5041954;28;20657;-50
2023/04/05 13:07:58;;;;;;;8.00;2.87;;;;;;;;;;5044791;28;20235;-51
2023/04/05 13:10:26;;;;;;;5.20;2.80;;;;;;;;;;5044648;28;20238;-52
2023/04/05 13:12:54;;;;;;;5.90;2.70;;;;;;;;;;5043517;28;20236;-50
2023/04/05 13:15:20;;;;;;;3.47;2.27;;;;;;;;;;5049973;28;20797;-52
2023/04/05 13:17:48;;;;;;;4.23;2.97;;;;;;;;;;5050003;28;20247;-52
2023/04/05 13:20:15;;;;;;;3.90;2.57;;;;;;;;;;5048393;28;20326;-52
2023/04/05 13:22:41;;;;;;;2.87;2.43;;;;;;;;;;5036763;28;20242;-52
2023/04/05 13:25:08;;;;;;;3.33;2.73;;;;;;;;;;5048959;28;20772;-52
2023/04/05 13:27:35;;;;;;;5.67;2.57;;;;;;;;;;5042135;28;20227;-52
2023/04/05 13:30:03;;;;;;;5.23;2.83;;;;;;;;;;5051901;28;20710;-51
2023/04/05 13:32:29;;;;;;;2.97;2.60;;;;;;;;;;5050047;28;20292;-51
2023/04/05 13:34:56;;;;;;;2.90;2.70;;;;;;;;;;5055815;28;20666;-51
2023/04/05 13:37:22;;;;;;;6.70;2.83;;;;;;;;;;5058283;28;20296;-51
2023/04/05 13:39:49;;;;;;;4.43;2.93;;;;;;;;;;5053044;28;20319;-52
2023/04/05 13:42:15;;;;;;;4.13;3.10;;;;;;;;;;5046707;28;20267;-51
2023/04/05 13:44:42;;;;;;;6.27;3.03;;;;;;;;;;5043471;28;20234;-51
2023/04/05 13:47:10;;;;;;;4.07;2.97;;;;;;;;;;5035831;28;20323;-51
2023/04/05 13:49:36;;;;;;;2.43;2.23;;;;;;;;;;5043139;28;20617;-51
2023/04/05 13:52:03;;;;;;;2.67;2.47;;;;;;;;;;5043734;28;20239;-52
2023/04/05 13:54:29;;;;;;;4.13;2.67;;;;;;;;;;5041372;28;20637;-52
2023/04/05 13:56:57;;;;;;;3.53;2.60;;;;;;;;;;5036992;28;20232;-51
2023/04/05 13:59:24;;;;;;;6.03;2.67;;;;;;;;;;5043135;28;20231;-52
2023/04/05 14:01:51;;;;;;;2.50;2.30;;;;;;;;;;5040070;28;20236;-51
2023/04/05 14:04:19;;;;;;;3.97;3.13;;;;;;;;;;5024461;28;20331;-52
2023/04/05 14:06:45;;;;;;;2.97;2.67;;;;;;;;;;5039002;28;20331;-52
2023/04/05 14:09:12;;;;;;;5.53;2.70;;;;;;;;;;5028570;28;20284;-52
2023/04/05 14:11:38;;;;;;;5.20;2.33;;;;;;;;;;5043732;28;20277;-51
2023/04/05 14:14:05;;;;;;;3.30;3.00;;;;;;;;;;5040845;28;20232;-51
2023/04/05 14:16:32;;;;;;;4.40;3.07;;;;;;;;;;5046692;28;20304;-52
2023/04/05 14:18:58;;;;;;;3.50;3.20;;;;;;;;;;5039040;28;20243;-52
2023/04/05 14:21:26;;;;;;;5.00;2.50;;;;;;;;;;5044964;28;20325;-52
2023/04/05 14:23:55;;;;;;;2.70;2.50;;;;;;;;;;5047332;28;20588;-50
2023/04/05 14:26:22;;;;;;;2.43;2.23;;;;;;;;;;5048788;28;20235;-51
2023/04/05 14:28:49;;;;;;;4.43;2.20;;;;;;;;;;5039409;28;20235;-50
2023/04/05 14:31:16;;;;;;;2.87;2.17;;;;;;;;;;5038093;28;20240;-50
2023/04/05 14:33:43;;;;;;;2.63;2.43;;;;;;;;;;5039105;28;20228;-49
2023/04/05 14:36:09;;;;;;;2.63;2.23;;;;;;;;;;5052114;28;20231;-51
2023/04/05 14:38:37;;;;;;;4.00;2.50;;;;;;;;;;5036674;28;20323;-51
2023/04/05 14:41:04;;;;;;;2.73;2.53;;;;;;;;;;5030495;28;20240;-52
2023/04/05 14:43:31;;;;;;;5.30;2.53;;;;;;;;;;5035331;28;20232;-52
2023/04/05 14:45:58;;;;;;;3.83;2.83;;;;;;;;;;5042660;28;20255;-51
2023/04/05 14:48:26;;;;;;;3.43;2.30;;;;;;;;;;5038264;28;20243;-51